sensor_id;sensor_type;location;lat;lon;timestamp;P1;durP1;ratioP1;P2;durP2;ratioP2
10063;SDS011;5071;52.360;13.134;2022-09-09T00:04:21;4.77;;;3.47;;
10063;SDS011;5071;52.360;13.134;2022-09-09T00:09:31;4.50;;;3.70;;
10063;SDS011;5071;52.360;13.134;2022-09-09T00:14:42;4.83;;;3.87;;
10063;SDS011;5071;52.360;13.134;2022-09-09T00:19:50;4.40;;;3.67;;
10063;SDS011;5071;52.360;13.134;2022-09-09T00:25:01;4.43;;;3.83;;
10063;SDS011;5071;52.360;13.134;2022-09-09T00:30:14;4.07;;;3.20;;
10063;SDS011;5071;52.360;13.134;2022-09-09T00:35:22;4.27;;;3.40;;
10063;SDS011;5071;52.360;13.134;2022-09-09T00:40:29;5.23;;;3.40;;
10063;SDS011;5071;52.360;13.134;2022-09-09T00:45:42;3.93;;;3.57;;
10063;SDS011;5071;52.360;13.134;2022-09-09T00:51:00;6.43;;;4.00;;
10063;SDS011;5071;52.360;13.134;2022-09-09T00:56:14;5.17;;;4.30;;
10063;SDS011;5071;52.360;13.134;2022-09-09T01:01:20;4.70;;;4.00;;
10063;SDS011;5071;52.360;13.134;2022-09-09T01:06:22;4.70;;;3.80;;
10063;SDS011;5071;52.360;13.134;2022-09-09T01:11:33;4.77;;;3.50;;
10063;SDS011;5071;52.360;13.134;2022-09-09T01:16:44;5.97;;;4.80;;
10063;SDS011;5071;52.360;13.134;2022-09-09T01:21:48;4.83;;;4.00;;
10063;SDS011;5071;52.360;13.134;2022-09-09T01:26:58;5.53;;;4.53;;
10063;SDS011;5071;52.360;13.134;2022-09-09T01:32:35;5.93;;;4.50;;
10063;SDS011;5071;52.360;13.134;2022-09-09T01:37:40;5.97;;;4.37;;
10063;SDS011;5071;52.360;13.134;2022-09-09T01:42:42;5.70;;;3.53;;
10063;SDS011;5071;52.360;13.134;2022-09-09T01:47:44;5.20;;;4.37;;
10063;SDS011;5071;52.360;13.134;2022-09-09T01:52:49;5.73;;;4.13;;
10063;SDS011;5071;52.360;13.134;2022-09-09T01:57:58;5.73;;;4.33;;
10063;SDS011;5071;52.360;13.134;2022-09-09T02:03:14;5.63;;;4.33;;
10063;SDS011;5071;52.360;13.134;2022-09-09T02:08:28;5.73;;;4.27;;
10063;SDS011;5071;52.360;13.134;2022-09-09T02:13:40;5.40;;;4.00;;
10063;SDS011;5071;52.360;13.134;2022-09-09T02:18:45;6.30;;;3.87;;
10063;SDS011;5071;52.360;13.134;2022-09-09T02:23:53;5.83;;;3.97;;
10063;SDS011;5071;52.360;13.134;2022-09-09T02:29:01;7.63;;;4.50;;
10063;SDS011;5071;52.360;13.134;2022-09-09T02:34:06;7.67;;;4.70;;
10063;SDS011;5071;52.360;13.134;2022-09-09T02:39:13;5.93;;;4.43;;
10063;SDS011;5071;52.360;13.134;2022-09-09T02:44:16;5.77;;;3.77;;
10063;SDS011;5071;52.360;13.134;2022-09-09T02:49:20;7.80;;;4.50;;
10063;SDS011;5071;52.360;13.134;2022-09-09T02:54:31;6.40;;;4.63;;
10063;SDS011;5071;52.360;13.134;2022-09-09T02:59:35;6.77;;;4.73;;
10063;SDS011;5071;52.360;13.134;2022-09-09T03:04:37;6.27;;;4.87;;
10063;SDS011;5071;52.360;13.134;2022-09-09T03:09:40;7.37;;;4.93;;
10063;SDS011;5071;52.360;13.134;2022-09-09T03:14:42;6.00;;;4.47;;
10063;SDS011;5071;52.360;13.134;2022-09-09T03:19:44;5.37;;;4.10;;
10063;SDS011;5071;52.360;13.134;2022-09-09T03:24:47;9.63;;;4.77;;
10063;SDS011;5071;52.360;13.134;2022-09-09T03:29:49;5.93;;;4.67;;
10063;SDS011;5071;52.360;13.134;2022-09-09T03:34:51;5.23;;;4.33;;
10063;SDS011;5071;52.360;13.134;2022-09-09T03:39:55;5.90;;;4.53;;
10063;SDS011;5071;52.360;13.134;2022-09-09T03:44:57;5.47;;;4.27;;
10063;SDS011;5071;52.360;13.134;2022-09-09T03:49:59;5.87;;;4.43;;
10063;SDS011;5071;52.360;13.134;2022-09-09T03:55:02;6.43;;;5.30;;
10063;SDS011;5071;52.360;13.134;2022-09-09T04:00:06;5.17;;;4.30;;
10063;SDS011;5071;52.360;13.134;2022-09-09T04:05:09;5.07;;;4.03;;
10063;SDS011;5071;52.360;13.134;2022-09-09T04:10:12;7.10;;;4.20;;
10063;SDS011;5071;52.360;13.134;2022-09-09T04:15:15;6.00;;;4.50;;
10063;SDS011;5071;52.360;13.134;2022-09-09T04:20:16;7.70;;;4.60;;
10063;SDS011;5071;52.360;13.134;2022-09-09T04:25:20;7.53;;;5.07;;
10063;SDS011;5071;52.360;13.134;2022-09-09T04:30:22;6.40;;;4.67;;
10063;SDS011;5071;52.360;13.134;2022-09-09T04:35:24;6.67;;;4.53;;
10063;SDS011;5071;52.360;13.134;2022-09-09T04:40:28;6.60;;;4.93;;
10063;SDS011;5071;52.360;13.134;2022-09-09T04:45:30;5.13;;;4.17;;
10063;SDS011;5071;52.360;13.134;2022-09-09T04:50:31;8.83;;;5.53;;
10063;SDS011;5071;52.360;13.134;2022-09-09T04:55:34;6.90;;;4.97;;
10063;SDS011;5071;52.360;13.134;2022-09-09T05:00:37;7.10;;;4.93;;
10063;SDS011;5071;52.360;13.134;2022-09-09T05:05:39;7.47;;;4.90;;
10063;SDS011;5071;52.360;13.134;2022-09-09T05:10:42;7.80;;;4.73;;
10063;SDS011;5071;52.360;13.134;2022-09-09T05:15:50;5.67;;;4.67;;
10063;SDS011;5071;52.360;13.134;2022-09-09T05:20:58;5.53;;;4.10;;
10063;SDS011;5071;52.360;13.134;2022-09-09T05:26:01;7.37;;;4.60;;
10063;SDS011;5071;52.360;13.134;2022-09-09T05:31:04;5.63;;;5.03;;
10063;SDS011;5071;52.360;13.134;2022-09-09T05:36:08;8.57;;;4.93;;
10063;SDS011;5071;52.360;13.134;2022-09-09T05:41:13;4.90;;;4.23;;
10063;SDS011;5071;52.360;13.134;2022-09-09T05:46:16;3.83;;;3.47;;
10063;SDS011;5071;52.360;13.134;2022-09-09T05:51:20;5.20;;;3.33;;
10063;SDS011;5071;52.360;13.134;2022-09-09T05:56:25;3.00;;;2.67;;
10063;SDS011;5071;52.360;13.134;2022-09-09T06:01:29;4.07;;;2.13;;
10063;SDS011;5071;52.360;13.134;2022-09-09T06:06:33;3.27;;;2.17;;
10063;SDS011;5071;52.360;13.134;2022-09-09T06:11:38;3.60;;;2.37;;
10063;SDS011;5071;52.360;13.134;2022-09-09T06:16:41;3.93;;;3.30;;
10063;SDS011;5071;52.360;13.134;2022-09-09T06:21:43;4.30;;;2.80;;
10063;SDS011;5071;52.360;13.134;2022-09-09T06:26:46;3.57;;;2.80;;
10063;SDS011;5071;52.360;13.134;2022-09-09T06:31:48;5.70;;;2.87;;
10063;SDS011;5071;52.360;13.134;2022-09-09T06:36:50;4.77;;;2.77;;
10063;SDS011;5071;52.360;13.134;2022-09-09T06:41:53;4.03;;;2.77;;
10063;SDS011;5071;52.360;13.134;2022-09-09T06:46:55;3.83;;;2.73;;
10063;SDS011;5071;52.360;13.134;2022-09-09T06:51:57;5.97;;;2.50;;
10063;SDS011;5071;52.360;13.134;2022-09-09T06:57:00;4.77;;;2.40;;
10063;SDS011;5071;52.360;13.134;2022-09-09T07:02:21;3.43;;;2.40;;
10063;SDS011;5071;52.360;13.134;2022-09-09T07:07:23;3.23;;;2.30;;
10063;SDS011;5071;52.360;13.134;2022-09-09T07:12:26;2.33;;;2.00;;
10063;SDS011;5071;52.360;13.134;2022-09-09T07:17:28;6.23;;;2.10;;
10063;SDS011;5071;52.360;13.134;2022-09-09T07:22:30;2.73;;;1.90;;
10063;SDS011;5071;52.360;13.134;2022-09-09T07:27:33;3.33;;;1.40;;
10063;SDS011;5071;52.360;13.134;2022-09-09T07:32:35;4.00;;;1.30;;
10063;SDS011;5071;52.360;13.134;2022-09-09T07:37:37;3.60;;;1.23;;
10063;SDS011;5071;52.360;13.134;2022-09-09T07:42:40;2.07;;;1.57;;
10063;SDS011;5071;52.360;13.134;2022-09-09T07:47:43;1.40;;;1.30;;
10063;SDS011;5071;52.360;13.134;2022-09-09T07:52:45;1.43;;;1.30;;
10063;SDS011;5071;52.360;13.134;2022-09-09T07:57:48;1.43;;;1.20;;
10063;SDS011;5071;52.360;13.134;2022-09-09T08:02:50;3.53;;;1.40;;
10063;SDS011;5071;52.360;13.134;2022-09-09T08:07:51;1.63;;;1.23;;
10063;SDS011;5071;52.360;13.134;2022-09-09T08:12:54;1.53;;;1.20;;
10063;SDS011;5071;52.360;13.134;2022-09-09T08:18:17;4.47;;;1.40;;
10063;SDS011;5071;52.360;13.134;2022-09-09T08:23:19;2.20;;;1.33;;
10063;SDS011;5071;52.360;13.134;2022-09-09T08:28:23;5.30;;;1.57;;
10063;SDS011;5071;52.360;13.134;2022-09-09T08:33:25;1.27;;;1.17;;
10063;SDS011;5071;52.360;13.134;2022-09-09T08:38:27;3.67;;;1.57;;
10063;SDS011;5071;52.360;13.134;2022-09-09T08:43:30;3.80;;;1.43;;
10063;SDS011;5071;52.360;13.134;2022-09-09T08:48:42;3.43;;;1.50;;
10063;SDS011;5071;52.360;13.134;2022-09-09T08:53:52;1.70;;;1.53;;
10063;SDS011;5071;52.360;13.134;2022-09-09T08:59:02;3.17;;;1.37;;
10063;SDS011;5071;52.360;13.134;2022-09-09T09:04:06;5.20;;;1.30;;
10063;SDS011;5071;52.360;13.134;2022-09-09T09:09:21;3.10;;;1.13;;
10063;SDS011;5071;52.360;13.134;2022-09-09T09:14:31;1.23;;;0.93;;
10063;SDS011;5071;52.360;13.134;2022-09-09T09:19:38;2.10;;;1.20;;
10063;SDS011;5071;52.360;13.134;2022-09-09T09:24:42;2.97;;;1.30;;
10063;SDS011;5071;52.360;13.134;2022-09-09T09:29:53;1.38;;;0.93;;
10063;SDS011;5071;52.360;13.134;2022-09-09T09:35:18;1.75;;;0.77;;
10063;SDS011;5071;52.360;13.134;2022-09-09T09:40:20;0.70;;;0.70;;
10063;SDS011;5071;52.360;13.134;2022-09-09T09:45:27;1.05;;;0.68;;
10063;SDS011;5071;52.360;13.134;2022-09-09T09:50:30;2.28;;;0.88;;
10063;SDS011;5071;52.360;13.134;2022-09-09T09:55:33;1.90;;;0.90;;
10063;SDS011;5071;52.360;13.134;2022-09-09T10:00:38;1.63;;;0.77;;
10063;SDS011;5071;52.360;13.134;2022-09-09T10:05:49;1.95;;;1.38;;
10063;SDS011;5071;52.360;13.134;2022-09-09T10:10:55;1.02;;;0.65;;
10063;SDS011;5071;52.360;13.134;2022-09-09T10:16:09;4.28;;;1.83;;
10063;SDS011;5071;52.360;13.134;2022-09-09T10:21:26;2.38;;;0.80;;
10063;SDS011;5071;52.360;13.134;2022-09-09T10:26:39;1.67;;;0.88;;
10063;SDS011;5071;52.360;13.134;2022-09-09T10:31:52;1.15;;;0.82;;
10063;SDS011;5071;52.360;13.134;2022-09-09T10:37:03;0.60;;;0.57;;
10063;SDS011;5071;52.360;13.134;2022-09-09T10:42:24;1.77;;;0.80;;
10063;SDS011;5071;52.360;13.134;2022-09-09T10:47:36;0.65;;;0.65;;
10063;SDS011;5071;52.360;13.134;2022-09-09T10:52:49;1.52;;;0.70;;
10063;SDS011;5071;52.360;13.134;2022-09-09T10:58:02;1.23;;;0.85;;
10063;SDS011;5071;52.360;13.134;2022-09-09T11:03:10;4.28;;;0.82;;
10063;SDS011;5071;52.360;13.134;2022-09-09T11:08:21;0.98;;;0.70;;
10063;SDS011;5071;52.360;13.134;2022-09-09T11:13:26;0.82;;;0.60;;
10063;SDS011;5071;52.360;13.134;2022-09-09T11:18:39;0.60;;;0.60;;
10063;SDS011;5071;52.360;13.134;2022-09-09T11:23:44;0.93;;;0.73;;
10063;SDS011;5071;52.360;13.134;2022-09-09T11:28:56;1.42;;;0.77;;
10063;SDS011;5071;52.360;13.134;2022-09-09T11:34:21;2.53;;;0.70;;
10063;SDS011;5071;52.360;13.134;2022-09-09T11:45:10;1.17;;;0.60;;
10063;SDS011;5071;52.360;13.134;2022-09-09T11:50:29;3.78;;;0.82;;
10063;SDS011;5071;52.360;13.134;2022-09-09T11:55:34;1.10;;;0.75;;
10063;SDS011;5071;52.360;13.134;2022-09-09T12:00:37;0.88;;;0.60;;
10063;SDS011;5071;52.360;13.134;2022-09-09T12:05:42;0.50;;;0.50;;
10063;SDS011;5071;52.360;13.134;2022-09-09T12:10:52;5.57;;;0.70;;
10063;SDS011;5071;52.360;13.134;2022-09-09T12:15:55;0.75;;;0.60;;
10063;SDS011;5071;52.360;13.134;2022-09-09T12:21:01;2.90;;;0.50;;
10063;SDS011;5071;52.360;13.134;2022-09-09T12:26:21;2.88;;;1.00;;
10063;SDS011;5071;52.360;13.134;2022-09-09T12:31:31;5.53;;;0.95;;
10063;SDS011;5071;52.360;13.134;2022-09-09T12:36:48;0.88;;;0.57;;
10063;SDS011;5071;52.360;13.134;2022-09-09T12:41:54;2.05;;;0.90;;
10063;SDS011;5071;52.360;13.134;2022-09-09T12:46:57;1.85;;;0.70;;
10063;SDS011;5071;52.360;13.134;2022-09-09T12:52:04;2.38;;;0.80;;
10063;SDS011;5071;52.360;13.134;2022-09-09T12:57:10;1.17;;;0.80;;
10063;SDS011;5071;52.360;13.134;2022-09-09T13:02:18;1.42;;;0.68;;
10063;SDS011;5071;52.360;13.134;2022-09-09T13:07:23;2.83;;;0.80;;
10063;SDS011;5071;52.360;13.134;2022-09-09T13:12:25;0.95;;;0.77;;
10063;SDS011;5071;52.360;13.134;2022-09-09T13:17:27;0.90;;;0.85;;
10063;SDS011;5071;52.360;13.134;2022-09-09T13:22:31;1.75;;;0.70;;
10063;SDS011;5071;52.360;13.134;2022-09-09T13:27:37;0.77;;;0.60;;
10063;SDS011;5071;52.360;13.134;2022-09-09T13:32:41;3.10;;;0.88;;
10063;SDS011;5071;52.360;13.134;2022-09-09T13:37:44;1.15;;;0.60;;
10063;SDS011;5071;52.360;13.134;2022-09-09T13:42:46;1.10;;;0.50;;
10063;SDS011;5071;52.360;13.134;2022-09-09T13:47:49;1.60;;;0.50;;
10063;SDS011;5071;52.360;13.134;2022-09-09T13:52:54;1.55;;;0.57;;
10063;SDS011;5071;52.360;13.134;2022-09-09T13:57:57;1.15;;;0.80;;
10063;SDS011;5071;52.360;13.134;2022-09-09T14:03:01;2.00;;;0.70;;
10063;SDS011;5071;52.360;13.134;2022-09-09T14:08:04;0.70;;;0.60;;
10063;SDS011;5071;52.360;13.134;2022-09-09T14:13:07;1.80;;;0.70;;
10063;SDS011;5071;52.360;13.134;2022-09-09T14:18:09;0.50;;;0.50;;
10063;SDS011;5071;52.360;13.134;2022-09-09T14:23:14;1.38;;;0.50;;
10063;SDS011;5071;52.360;13.134;2022-09-09T14:28:16;3.15;;;1.13;;
10063;SDS011;5071;52.360;13.134;2022-09-09T14:33:26;0.95;;;0.60;;
10063;SDS011;5071;52.360;13.134;2022-09-09T14:38:30;1.20;;;0.70;;
10063;SDS011;5071;52.360;13.134;2022-09-09T14:43:34;1.75;;;0.68;;
10063;SDS011;5071;52.360;13.134;2022-09-09T14:48:36;1.45;;;0.80;;
10063;SDS011;5071;52.360;13.134;2022-09-09T14:53:40;1.80;;;0.95;;
10063;SDS011;5071;52.360;13.134;2022-09-09T14:58:42;0.90;;;0.55;;
10063;SDS011;5071;52.360;13.134;2022-09-09T15:03:48;3.20;;;0.77;;
10063;SDS011;5071;52.360;13.134;2022-09-09T15:08:53;4.13;;;1.13;;
10063;SDS011;5071;52.360;13.134;2022-09-09T15:13:55;0.68;;;0.43;;
10063;SDS011;5071;52.360;13.134;2022-09-09T15:18:58;2.47;;;0.80;;
10063;SDS011;5071;52.360;13.134;2022-09-09T15:24:02;1.98;;;0.80;;
10063;SDS011;5071;52.360;13.134;2022-09-09T15:29:05;0.82;;;0.50;;
10063;SDS011;5071;52.360;13.134;2022-09-09T15:34:07;1.25;;;0.77;;
10063;SDS011;5071;52.360;13.134;2022-09-09T15:39:11;2.17;;;0.77;;
10063;SDS011;5071;52.360;13.134;2022-09-09T15:44:15;1.20;;;0.55;;
10063;SDS011;5071;52.360;13.134;2022-09-09T15:49:17;4.93;;;0.88;;
10063;SDS011;5071;52.360;13.134;2022-09-09T15:54:22;0.63;;;0.60;;
10063;SDS011;5071;52.360;13.134;2022-09-09T15:59:25;1.73;;;0.80;;
10063;SDS011;5071;52.360;13.134;2022-09-09T16:04:28;2.92;;;0.90;;
10063;SDS011;5071;52.360;13.134;2022-09-09T16:09:32;1.67;;;0.80;;
10063;SDS011;5071;52.360;13.134;2022-09-09T16:14:34;1.60;;;0.73;;
10063;SDS011;5071;52.360;13.134;2022-09-09T16:19:36;0.60;;;0.60;;
10063;SDS011;5071;52.360;13.134;2022-09-09T16:24:39;0.70;;;0.60;;
10063;SDS011;5071;52.360;13.134;2022-09-09T16:29:42;1.00;;;0.90;;
10063;SDS011;5071;52.360;13.134;2022-09-09T16:34:44;0.98;;;0.70;;
10063;SDS011;5071;52.360;13.134;2022-09-09T16:39:47;0.98;;;0.55;;
10063;SDS011;5071;52.360;13.134;2022-09-09T16:44:49;1.27;;;0.70;;
10063;SDS011;5071;52.360;13.134;2022-09-09T16:49:51;0.80;;;0.63;;
10063;SDS011;5071;52.360;13.134;2022-09-09T16:54:54;1.15;;;0.63;;
10063;SDS011;5071;52.360;13.134;2022-09-09T16:59:56;2.60;;;0.80;;
10063;SDS011;5071;52.360;13.134;2022-09-09T17:04:57;1.17;;;0.90;;
10063;SDS011;5071;52.360;13.134;2022-09-09T17:10:01;2.65;;;0.88;;
10063;SDS011;5071;52.360;13.134;2022-09-09T17:15:03;1.30;;;0.88;;
10063;SDS011;5071;52.360;13.134;2022-09-09T17:20:06;2.65;;;1.40;;
10063;SDS011;5071;52.360;13.134;2022-09-09T17:25:11;0.95;;;0.90;;
10063;SDS011;5071;52.360;13.134;2022-09-09T17:30:13;1.20;;;0.80;;
10063;SDS011;5071;52.360;13.134;2022-09-09T17:35:15;2.60;;;1.23;;
10063;SDS011;5071;52.360;13.134;2022-09-09T17:40:18;3.20;;;0.87;;
10063;SDS011;5071;52.360;13.134;2022-09-09T17:45:20;1.47;;;0.80;;
10063;SDS011;5071;52.360;13.134;2022-09-09T17:50:22;1.87;;;1.10;;
10063;SDS011;5071;52.360;13.134;2022-09-09T17:55:25;5.67;;;1.90;;
10063;SDS011;5071;52.360;13.134;2022-09-09T18:00:27;4.77;;;2.20;;
10063;SDS011;5071;52.360;13.134;2022-09-09T18:05:29;2.10;;;1.50;;
10063;SDS011;5071;52.360;13.134;2022-09-09T18:15:35;2.33;;;0.90;;
10063;SDS011;5071;52.360;13.134;2022-09-09T18:20:56;2.07;;;1.40;;
10063;SDS011;5071;52.360;13.134;2022-09-09T18:26:00;2.27;;;1.10;;
10063;SDS011;5071;52.360;13.134;2022-09-09T18:31:03;3.00;;;1.07;;
10063;SDS011;5071;52.360;13.134;2022-09-09T18:36:06;1.73;;;1.10;;
10063;SDS011;5071;52.360;13.134;2022-09-09T18:41:14;2.17;;;1.00;;
10063;SDS011;5071;52.360;13.134;2022-09-09T18:46:18;2.17;;;0.87;;
10063;SDS011;5071;52.360;13.134;2022-09-09T18:51:20;2.77;;;1.00;;
10063;SDS011;5071;52.360;13.134;2022-09-09T18:56:25;3.30;;;1.13;;
10063;SDS011;5071;52.360;13.134;2022-09-09T19:01:28;1.00;;;0.83;;
10063;SDS011;5071;52.360;13.134;2022-09-09T19:06:31;0.83;;;0.77;;
10063;SDS011;5071;52.360;13.134;2022-09-09T19:11:35;2.03;;;1.07;;
10063;SDS011;5071;52.360;13.134;2022-09-09T19:16:38;3.23;;;1.00;;
10063;SDS011;5071;52.360;13.134;2022-09-09T19:21:41;1.37;;;1.23;;
10063;SDS011;5071;52.360;13.134;2022-09-09T19:26:46;1.10;;;1.00;;
10063;SDS011;5071;52.360;13.134;2022-09-09T19:31:49;1.93;;;1.30;;
10063;SDS011;5071;52.360;13.134;2022-09-09T19:37:12;3.00;;;1.20;;
10063;SDS011;5071;52.360;13.134;2022-09-09T19:42:20;1.30;;;1.13;;
10063;SDS011;5071;52.360;13.134;2022-09-09T19:47:22;2.40;;;1.27;;
10063;SDS011;5071;52.360;13.134;2022-09-09T19:52:24;2.50;;;1.23;;
10063;SDS011;5071;52.360;13.134;2022-09-09T19:57:27;2.50;;;0.90;;
10063;SDS011;5071;52.360;13.134;2022-09-09T20:02:29;2.70;;;1.40;;
10063;SDS011;5071;52.360;13.134;2022-09-09T20:07:31;1.93;;;1.00;;
10063;SDS011;5071;52.360;13.134;2022-09-09T20:12:34;3.27;;;1.00;;
10063;SDS011;5071;52.360;13.134;2022-09-09T20:17:37;0.87;;;0.77;;
10063;SDS011;5071;52.360;13.134;2022-09-09T20:22:38;0.70;;;0.67;;
10063;SDS011;5071;52.360;13.134;2022-09-09T20:27:42;2.30;;;1.00;;
10063;SDS011;5071;52.360;13.134;2022-09-09T20:32:44;1.37;;;0.97;;
10063;SDS011;5071;52.360;13.134;2022-09-09T20:37:45;1.73;;;1.00;;
10063;SDS011;5071;52.360;13.134;2022-09-09T20:42:49;3.30;;;1.00;;
10063;SDS011;5071;52.360;13.134;2022-09-09T20:47:51;0.70;;;0.70;;
10063;SDS011;5071;52.360;13.134;2022-09-09T20:52:52;1.87;;;1.20;;
10063;SDS011;5071;52.360;13.134;2022-09-09T20:57:56;2.17;;;1.30;;
10063;SDS011;5071;52.360;13.134;2022-09-09T21:02:57;1.27;;;0.97;;
10063;SDS011;5071;52.360;13.134;2022-09-09T21:07:59;1.80;;;0.87;;
10063;SDS011;5071;52.360;13.134;2022-09-09T21:13:02;1.73;;;0.90;;
10063;SDS011;5071;52.360;13.134;2022-09-09T21:18:04;1.70;;;0.90;;
10063;SDS011;5071;52.360;13.134;2022-09-09T21:23:06;1.60;;;1.20;;
10063;SDS011;5071;52.360;13.134;2022-09-09T21:28:09;1.33;;;0.93;;
10063;SDS011;5071;52.360;13.134;2022-09-09T21:33:12;1.13;;;1.00;;
10063;SDS011;5071;52.360;13.134;2022-09-09T21:38:15;1.60;;;1.23;;
10063;SDS011;5071;52.360;13.134;2022-09-09T21:43:19;1.40;;;1.20;;
10063;SDS011;5071;52.360;13.134;2022-09-09T21:48:21;0.90;;;0.90;;
10063;SDS011;5071;52.360;13.134;2022-09-09T21:53:22;0.87;;;0.87;;
10063;SDS011;5071;52.360;13.134;2022-09-09T21:58:25;1.47;;;1.00;;
10063;SDS011;5071;52.360;13.134;2022-09-09T22:03:27;1.20;;;1.00;;
10063;SDS011;5071;52.360;13.134;2022-09-09T22:08:29;1.47;;;1.10;;
10063;SDS011;5071;52.360;13.134;2022-09-09T22:13:32;2.40;;;1.00;;
10063;SDS011;5071;52.360;13.134;2022-09-09T22:18:35;2.07;;;1.20;;
10063;SDS011;5071;52.360;13.134;2022-09-09T22:23:36;1.83;;;1.20;;
10063;SDS011;5071;52.360;13.134;2022-09-09T22:28:40;3.27;;;1.23;;
10063;SDS011;5071;52.360;13.134;2022-09-09T22:33:42;1.50;;;1.13;;
10063;SDS011;5071;52.360;13.134;2022-09-09T22:38:43;1.30;;;1.03;;
10063;SDS011;5071;52.360;13.134;2022-09-09T22:43:47;1.10;;;1.00;;
10063;SDS011;5071;52.360;13.134;2022-09-09T22:48:48;2.33;;;1.20;;
10063;SDS011;5071;52.360;13.134;2022-09-09T22:53:50;1.30;;;1.20;;
10063;SDS011;5071;52.360;13.134;2022-09-09T22:58:54;2.80;;;1.33;;
10063;SDS011;5071;52.360;13.134;2022-09-09T23:03:57;0.97;;;0.97;;
10063;SDS011;5071;52.360;13.134;2022-09-09T23:09:00;1.03;;;0.90;;
10063;SDS011;5071;52.360;13.134;2022-09-09T23:14:04;1.10;;;0.90;;
10063;SDS011;5071;52.360;13.134;2022-09-09T23:19:08;2.40;;;1.30;;
10063;SDS011;5071;52.360;13.134;2022-09-09T23:24:12;2.00;;;1.23;;
10063;SDS011;5071;52.360;13.134;2022-09-09T23:29:17;3.23;;;1.20;;
10063;SDS011;5071;52.360;13.134;2022-09-09T23:34:19;2.77;;;1.43;;
10063;SDS011;5071;52.360;13.134;2022-09-09T23:39:21;1.43;;;1.00;;
10063;SDS011;5071;52.360;13.134;2022-09-09T23:44:24;2.67;;;1.30;;
10063;SDS011;5071;52.360;13.134;2022-09-09T23:49:26;2.53;;;1.20;;
10063;SDS011;5071;52.360;13.134;2022-09-09T23:54:27;2.83;;;1.20;;
10063;SDS011;5071;52.360;13.134;2022-09-09T23:59:30;1.30;;;1.20;;
